createdAt,value
2023-03-18T00:00:11.276Z,22.45
2023-03-18T00:02:39.288Z,23.55
2023-03-18T00:05:07.992Z,22.30
2023-03-18T00:07:36.146Z,22.65
2023-03-18T00:10:04.424Z,22.75
2023-03-18T00:12:32.325Z,22.00
2023-03-18T00:14:59.625Z,21.80
2023-03-18T00:17:26.694Z,20.73
2023-03-18T00:19:53.778Z,19.98
2023-03-18T00:22:20.394Z,21.95
2023-03-18T00:24:48.801Z,21.17
2023-03-18T00:27:15.418Z,21.25
2023-03-18T00:29:42.161Z,20.17
2023-03-18T00:32:08.982Z,19.65
2023-03-18T00:34:37.247Z,19.65
2023-03-18T00:37:03.860Z,19.52
2023-03-18T00:39:32.886Z,19.45
2023-03-18T00:42:07.920Z,19.05
2023-03-18T00:47:01.330Z,17.38
2023-03-18T00:49:28.160Z,14.75
2023-03-18T00:51:54.797Z,14.50
2023-03-18T00:54:22.401Z,13.18
2023-03-18T00:56:49.458Z,12.80
2023-03-18T00:59:16.616Z,11.48
2023-03-18T01:01:44.197Z,13.18
2023-03-18T01:04:11.349Z,12.85
2023-03-18T01:06:38.411Z,12.05
2023-03-18T01:09:08.696Z,11.75
2023-03-18T01:11:35.493Z,11.13
2023-03-18T01:14:03.486Z,11.70
2023-03-18T01:16:30.284Z,10.65
2023-03-18T01:18:58.212Z,11.30
2023-03-18T01:21:27.465Z,11.68
2023-03-18T01:23:57.590Z,11.82
2023-03-18T01:26:26.288Z,12.75
2023-03-18T01:28:54.806Z,13.70
2023-03-18T01:31:21.996Z,13.02
2023-03-18T01:33:48.948Z,12.38
2023-03-18T01:36:17.422Z,14.25
2023-03-18T01:38:49.245Z,14.57
2023-03-18T01:41:17.099Z,12.60
2023-03-18T01:43:43.956Z,14.43
2023-03-18T01:46:45.410Z,13.93
2023-03-18T01:49:23.849Z,13.80
2023-03-18T01:52:09.215Z,15.20
2023-03-18T01:54:42.181Z,13.85
2023-03-18T01:57:09.336Z,16.02
2023-03-18T01:59:39.904Z,15.32
2023-03-18T02:02:12.601Z,14.32
2023-03-18T02:04:51.379Z,14.48
2023-03-18T02:07:21.464Z,14.52
2023-03-18T02:09:49.859Z,15.20
2023-03-18T02:12:29.357Z,15.90
2023-03-18T02:15:01.896Z,16.05
2023-03-18T02:17:33.089Z,17.90
2023-03-18T02:20:27.850Z,16.85
2023-03-18T02:26:03.389Z,16.10
2023-03-18T02:28:31.775Z,16.77
2023-03-18T02:31:03.725Z,16.48
2023-03-18T02:33:38.817Z,16.65
2023-03-18T02:36:28.255Z,16.77
2023-03-18T02:38:57.667Z,17.48
2023-03-18T02:41:28.683Z,17.00
2023-03-18T02:43:55.920Z,17.58
2023-03-18T02:46:47.502Z,16.88
2023-03-18T02:49:15.594Z,16.42
2023-03-18T02:51:42.349Z,15.25
2023-03-18T02:54:18.307Z,15.25
2023-03-18T02:56:45.161Z,17.17
2023-03-18T02:59:13.003Z,15.27
2023-03-18T03:01:41.297Z,15.52
2023-03-18T03:04:08.331Z,16.13
2023-03-18T03:06:36.540Z,15.75
2023-03-18T03:09:05.909Z,15.23
2023-03-18T03:11:34.600Z,15.23
2023-03-18T03:14:10.817Z,14.63
2023-03-18T03:16:38.752Z,16.02
2023-03-18T03:19:06.841Z,14.27
2023-03-18T03:21:36.476Z,14.80
2023-03-18T03:24:04.661Z,13.48
2023-03-18T03:26:31.825Z,13.68
2023-03-18T03:28:58.744Z,13.70
2023-03-18T03:31:26.260Z,13.57
2023-03-18T03:33:53.463Z,13.10
2023-03-18T03:36:20.356Z,13.30
2023-03-18T03:38:48.214Z,12.82
2023-03-18T03:41:15.891Z,13.25
2023-03-18T03:43:43.318Z,12.13
2023-03-18T03:46:11.090Z,12.27
2023-03-18T03:48:39.478Z,12.30
2023-03-18T03:51:10.525Z,12.50
2023-03-18T03:53:37.160Z,12.48
2023-03-18T03:56:05.138Z,14.05
2023-03-18T03:58:31.975Z,12.82
2023-03-18T04:00:58.624Z,14.13
2023-03-18T04:03:26.505Z,14.23
2023-03-18T04:05:54.600Z,15.18
2023-03-18T04:08:24.074Z,15.20
2023-03-18T04:10:51.765Z,13.80
2023-03-18T04:13:18.553Z,13.80
2023-03-18T04:15:47.470Z,14.27
2023-03-18T04:18:18.038Z,13.73
2023-03-18T04:20:46.124Z,13.60
2023-03-18T04:23:20.696Z,14.00
2023-03-18T04:25:47.687Z,15.07
2023-03-18T04:28:16.253Z,14.13
2023-03-18T04:30:42.909Z,14.05
2023-03-18T04:33:14.479Z,15.23
2023-03-18T04:35:44.671Z,14.20
2023-03-18T04:38:13.607Z,14.50
2023-03-18T04:40:40.922Z,14.82
2023-03-18T04:43:07.560Z,15.68
2023-03-18T04:45:34.538Z,15.05
2023-03-18T04:48:02.708Z,16.30
2023-03-18T04:50:33.116Z,15.90
2023-03-18T04:53:00.103Z,16.73
2023-03-18T04:55:29.285Z,17.02
2023-03-18T04:57:56.880Z,16.45
2023-03-18T05:00:25.930Z,15.00
2023-03-18T05:03:02.028Z,17.33
2023-03-18T05:05:28.661Z,17.23
2023-03-18T05:07:55.408Z,17.92
2023-03-18T05:10:23.829Z,17.92
2023-03-18T05:12:50.764Z,18.27
2023-03-18T05:15:25.859Z,16.95
2023-03-18T05:17:55.113Z,18.35
2023-03-18T05:20:22.397Z,18.65
2023-03-18T05:22:49.933Z,18.27
2023-03-18T05:25:27.990Z,21.05
2023-03-18T05:27:54.779Z,18.77
2023-03-18T05:30:30.400Z,21.48
2023-03-18T05:32:57.152Z,21.13
2023-03-18T05:35:37.377Z,20.95
2023-03-18T05:38:04.485Z,19.58
2023-03-18T05:40:31.401Z,19.65
2023-03-18T05:43:05.709Z,19.40
2023-03-18T05:45:40.456Z,17.88
2023-03-18T05:48:10.547Z,19.60
2023-03-18T05:50:44.556Z,17.98
2023-03-18T05:53:16.882Z,19.58
2023-03-18T05:55:45.549Z,18.83
2023-03-18T05:58:12.738Z,20.20
2023-03-18T06:00:41.471Z,19.65
2023-03-18T06:03:10.093Z,20.92
2023-03-18T06:05:37.189Z,21.15
2023-03-18T06:08:04.290Z,22.63
2023-03-18T06:10:33.379Z,21.38
2023-03-18T06:13:00.864Z,21.55
2023-03-18T06:15:27.646Z,21.73
2023-03-18T06:17:56.186Z,22.77
2023-03-18T06:20:23.299Z,22.92
2023-03-18T06:22:50.297Z,23.42
2023-03-18T06:25:19.383Z,25.40
2023-03-18T06:27:47.705Z,22.50
2023-03-18T06:30:17.287Z,23.67
2023-03-18T06:32:44.770Z,24.73
2023-03-18T06:35:12.324Z,23.48
2023-03-18T06:37:39.944Z,23.20
2023-03-18T06:40:10.507Z,24.63
2023-03-18T06:42:37.489Z,21.85
2023-03-18T06:45:10.506Z,23.20
2023-03-18T06:47:47.855Z,23.38
2023-03-18T06:50:15.172Z,22.98
2023-03-18T06:52:43.535Z,23.60
2023-03-18T06:55:14.676Z,24.30
2023-03-18T06:57:45.547Z,22.60
2023-03-18T07:00:15.696Z,21.25
2023-03-18T07:02:43.175Z,21.10
2023-03-18T07:05:12.836Z,20.75
2023-03-18T07:07:41.914Z,20.13
2023-03-18T07:10:15.214Z,18.83
2023-03-18T07:12:41.924Z,16.67
2023-03-18T07:15:09.140Z,15.23
2023-03-18T07:17:37.195Z,14.40
2023-03-18T07:20:05.422Z,16.73
2023-03-18T07:22:35.024Z,14.68
2023-03-18T07:25:01.648Z,14.40
2023-03-18T07:27:29.707Z,12.77
2023-03-18T07:29:57.031Z,13.07
2023-03-18T07:32:23.711Z,12.60
2023-03-18T07:34:50.470Z,10.20
2023-03-18T07:37:17.072Z,10.10
2023-03-18T07:39:43.775Z,9.00
2023-03-18T07:42:11.209Z,8.02
2023-03-18T07:44:41.308Z,7.57
2023-03-18T07:47:07.984Z,11.27
2023-03-18T07:49:34.670Z,11.32
2023-03-18T07:52:02.062Z,12.55
2023-03-18T07:54:28.646Z,15.60
2023-03-18T07:56:55.285Z,18.55
2023-03-18T07:59:22.168Z,18.33
2023-03-18T08:01:48.913Z,20.20
2023-03-18T08:04:16.435Z,22.40
2023-03-18T08:06:43.339Z,19.75
2023-03-18T08:09:10.557Z,21.90
2023-03-18T08:11:38.023Z,25.27
2023-03-18T08:14:04.616Z,22.40
2023-03-18T08:16:31.403Z,22.98
2023-03-18T08:18:58.469Z,22.17
2023-03-18T08:21:25.396Z,24.45
2023-03-18T08:23:52.089Z,24.35
2023-03-18T08:26:19.288Z,25.55
2023-03-18T08:28:45.862Z,24.48
2023-03-18T08:31:14.119Z,27.80
2023-03-18T08:33:41.414Z,24.33
2023-03-18T08:36:08.594Z,26.77
2023-03-18T08:38:35.814Z,27.63
2023-03-18T08:41:03.794Z,29.63
2023-03-18T08:43:30.361Z,28.45
2023-03-18T08:45:57.481Z,29.52
2023-03-18T08:48:25.681Z,27.92
2023-03-18T08:50:52.613Z,28.42
2023-03-18T08:53:19.804Z,27.25
2023-03-18T08:55:47.142Z,30.85
2023-03-18T08:58:13.758Z,33.67
2023-03-18T09:00:41.672Z,25.33
2023-03-18T09:03:09.974Z,25.70
2023-03-18T09:05:37.652Z,25.52
2023-03-18T09:08:05.179Z,26.80
2023-03-18T09:10:33.131Z,25.42
2023-03-18T09:13:00.782Z,25.90
2023-03-18T09:15:27.734Z,27.73
2023-03-18T09:18:10.429Z,26.70
2023-03-18T09:20:39.093Z,26.52
2023-03-18T09:23:06.389Z,25.48
2023-03-18T09:25:34.119Z,26.50
2023-03-18T09:28:01.150Z,26.08
2023-03-18T09:30:28.477Z,26.23
2023-03-18T09:32:56.418Z,25.17
2023-03-18T09:35:24.068Z,24.95
2023-03-18T09:37:51.825Z,26.38
2023-03-18T09:40:38.004Z,24.73
2023-03-18T09:43:39.106Z,24.92
2023-03-18T09:46:16.212Z,23.02
2023-03-18T09:49:20.416Z,26.27
2023-03-18T09:52:17.008Z,26.70
2023-03-18T09:54:47.476Z,24.40
2023-03-18T09:57:32.147Z,27.48
2023-03-18T10:00:09.034Z,28.23
2023-03-18T10:02:41.612Z,26.48
2023-03-18T10:05:33.337Z,25.98
2023-03-18T10:08:11.551Z,26.40
2023-03-18T10:10:46.044Z,26.65
2023-03-18T10:13:25.402Z,26.38
2023-03-18T10:15:57.472Z,26.88
2023-03-18T10:18:33.303Z,28.30
2023-03-18T10:21:20.333Z,28.17
2023-03-18T10:24:02.656Z,26.25
2023-03-18T10:26:39.679Z,26.27
2023-03-18T10:29:34.590Z,25.65
2023-03-18T10:32:16.789Z,27.50
2023-03-18T10:35:09.336Z,34.38
2023-03-18T10:38:04.416Z,33.78
2023-03-18T10:40:41.184Z,33.67
2023-03-18T10:43:20.736Z,35.00
2023-03-18T10:45:52.631Z,34.20
2023-03-18T10:48:42.343Z,35.72
2023-03-18T10:51:27.197Z,35.03
2023-03-18T10:54:15.617Z,36.75
2023-03-18T10:56:42.799Z,36.33
2023-03-18T10:59:16.693Z,36.38
2023-03-18T11:01:46.796Z,35.53
2023-03-18T11:04:16.996Z,32.65
2023-03-18T11:06:51.568Z,33.50
2023-03-18T11:09:21.968Z,36.20
2023-03-18T11:11:55.621Z,36.45
2023-03-18T11:14:28.823Z,38.45
2023-03-18T11:17:06.042Z,35.88
2023-03-18T11:19:41.648Z,36.47
2023-03-18T11:22:28.470Z,37.30
2023-03-18T11:25:20.019Z,37.95
2023-03-18T11:27:52.225Z,34.65
2023-03-18T11:30:34.491Z,34.55
2023-03-18T11:33:10.922Z,34.63
2023-03-18T11:35:57.320Z,37.55
2023-03-18T11:38:33.371Z,35.95
2023-03-18T11:41:16.888Z,36.75
2023-03-18T11:44:03.653Z,35.13
2023-03-18T11:46:43.070Z,37.08
2023-03-18T11:49:15.268Z,34.97
2023-03-18T11:51:45.645Z,35.40
2023-03-18T11:54:18.436Z,35.28
2023-03-18T11:57:14.613Z,35.03
2023-03-18T12:00:07.593Z,34.45
2023-03-18T12:02:40.106Z,35.47
2023-03-18T12:05:20.099Z,34.00
2023-03-18T12:08:09.894Z,35.55
2023-03-18T12:10:42.252Z,36.63
2023-03-18T12:13:21.615Z,34.88
2023-03-18T12:16:11.248Z,33.88
2023-03-18T12:18:58.643Z,33.75
2023-03-18T12:22:11.493Z,34.67
2023-03-18T12:24:59.928Z,33.25
2023-03-18T12:27:36.931Z,33.78
2023-03-18T12:30:20.787Z,35.67
2023-03-18T12:33:16.127Z,36.55
2023-03-18T12:38:59.816Z,35.80
2023-03-18T12:41:41.337Z,36.15
2023-03-18T12:44:25.381Z,39.33
2023-03-18T12:47:07.719Z,34.70
2023-03-18T12:49:44.654Z,36.40
2023-03-18T12:52:23.725Z,34.08
2023-03-18T12:55:06.666Z,36.42
2023-03-18T12:57:38.029Z,35.83
2023-03-18T13:00:23.653Z,32.55
2023-03-18T13:02:59.154Z,33.97
2023-03-18T13:05:38.125Z,33.63
2023-03-18T13:08:29.261Z,33.17
2023-03-18T13:11:37.912Z,35.97
2023-03-18T13:14:24.145Z,34.60
2023-03-18T13:16:53.025Z,34.17
2023-03-18T13:19:19.857Z,34.75
2023-03-18T13:21:52.480Z,34.97
2023-03-18T13:24:48.974Z,35.03
2023-03-18T13:27:44.577Z,34.53
2023-03-18T13:30:37.248Z,33.35
2023-03-18T13:33:23.819Z,31.77
2023-03-18T13:36:10.727Z,32.65
2023-03-18T13:38:52.354Z,33.10
2023-03-18T13:41:47.528Z,33.13
2023-03-18T13:44:41.618Z,31.77
2023-03-18T13:47:13.826Z,31.75
2023-03-18T13:49:41.070Z,34.53
2023-03-18T13:52:25.938Z,32.88
2023-03-18T13:54:52.854Z,32.38
2023-03-18T13:57:46.909Z,32.67
2023-03-18T14:00:33.930Z,34.30
2023-03-18T14:03:22.936Z,34.25
2023-03-18T14:05:52.201Z,35.97
2023-03-18T14:08:38.255Z,35.92
2023-03-18T14:11:17.214Z,34.50
2023-03-18T14:13:44.871Z,38.78
2023-03-18T14:16:20.229Z,34.55
2023-03-18T14:19:00.232Z,38.20
2023-03-18T14:21:31.971Z,33.88
2023-03-18T14:24:17.758Z,35.13
2023-03-18T14:26:59.409Z,34.67
2023-03-18T14:29:31.046Z,35.85
2023-03-18T14:31:59.693Z,33.53
2023-03-18T14:34:29.227Z,35.42
2023-03-18T14:36:56.207Z,28.30
2023-03-18T14:39:43.067Z,32.97
2023-03-18T14:42:29.327Z,32.28
2023-03-18T14:45:02.470Z,34.58
2023-03-18T14:47:52.216Z,35.88
2023-03-18T14:50:29.481Z,34.55
2023-03-18T14:53:00.599Z,36.45
2023-03-18T14:55:32.498Z,33.42
2023-03-18T14:57:59.517Z,31.33
2023-03-18T15:00:28.391Z,30.85
2023-03-18T15:03:03.656Z,30.00
2023-03-18T15:05:37.438Z,33.45
2023-03-18T15:08:09.310Z,31.80
2023-03-18T15:10:36.341Z,32.17
2023-03-18T15:13:11.458Z,32.90
2023-03-18T15:15:38.806Z,32.58
2023-03-18T15:18:24.253Z,32.63
2023-03-18T15:20:57.417Z,33.33
2023-03-18T15:23:30.789Z,33.03
2023-03-18T15:25:57.654Z,32.10
2023-03-18T15:28:27.665Z,31.05
2023-03-18T15:30:56.906Z,31.95
2023-03-18T15:33:29.757Z,30.73
2023-03-18T15:36:03.062Z,30.88
2023-03-18T15:38:31.724Z,31.58
2023-03-18T15:41:09.994Z,30.83
2023-03-18T15:43:44.963Z,32.13
2023-03-18T15:49:01.100Z,32.50
2023-03-18T15:51:38.577Z,32.75
2023-03-18T15:54:15.772Z,34.17
2023-03-18T15:56:48.707Z,31.90
2023-03-18T15:59:18.712Z,33.00
2023-03-18T16:01:47.194Z,32.90
2023-03-18T16:04:17.730Z,32.88
2023-03-18T16:06:44.963Z,34.17
2023-03-18T16:09:20.601Z,34.80
2023-03-18T16:12:01.417Z,33.90
2023-03-18T16:14:37.161Z,33.55
2023-03-18T16:17:03.853Z,35.97
2023-03-18T16:19:30.831Z,33.13
2023-03-18T16:21:58.774Z,34.95
2023-03-18T16:24:25.815Z,31.98
2023-03-18T16:26:54.066Z,33.13
2023-03-18T16:29:41.488Z,28.20
2023-03-18T16:32:12.540Z,29.92
2023-03-18T16:34:39.609Z,28.20
2023-03-18T16:37:06.531Z,28.13
2023-03-18T16:39:35.344Z,28.08
2023-03-18T16:42:04.233Z,27.52
2023-03-18T16:44:33.341Z,28.08
2023-03-18T16:47:02.262Z,27.42
2023-03-18T16:49:34.184Z,28.13
2023-03-18T16:52:03.642Z,28.27
2023-03-18T16:54:32.758Z,30.75
2023-03-18T16:57:02.857Z,30.20
2023-03-18T16:59:33.659Z,31.00
2023-03-18T17:02:00.635Z,30.27
2023-03-18T17:04:34.894Z,20.00
2023-03-18T17:07:04.926Z,20.80
2023-03-18T17:09:31.943Z,22.15
2023-03-18T17:12:03.772Z,23.25
2023-03-18T17:14:38.464Z,21.88
2023-03-18T17:17:13.950Z,21.60
2023-03-18T17:19:41.121Z,21.15
2023-03-18T17:22:24.521Z,20.15
2023-03-18T17:24:51.395Z,19.88
2023-03-18T17:27:31.730Z,19.58
2023-03-18T17:29:58.375Z,15.35
2023-03-18T17:32:25.896Z,13.80
2023-03-18T17:34:53.613Z,10.30
2023-03-18T17:37:20.954Z,9.43
2023-03-18T17:39:47.866Z,10.13
2023-03-18T17:42:28.046Z,14.10
2023-03-18T17:44:55.452Z,10.43
2023-03-18T17:47:22.557Z,19.23
2023-03-18T17:49:49.150Z,18.17
2023-03-18T17:52:20.806Z,19.92
2023-03-18T17:54:47.961Z,11.75
2023-03-18T17:57:16.076Z,9.75
2023-03-18T17:59:42.697Z,11.98
2023-03-18T18:02:18.210Z,16.02
2023-03-18T18:04:45.787Z,10.20
2023-03-18T18:07:21.675Z,11.07
2023-03-18T18:09:49.473Z,14.18
2023-03-18T18:12:25.104Z,9.65
2023-03-18T18:14:51.788Z,9.15
2023-03-18T18:17:18.970Z,11.02
2023-03-18T18:19:46.336Z,20.45
2023-03-18T18:22:22.705Z,10.90
2023-03-18T18:24:50.246Z,11.40
2023-03-18T18:27:16.884Z,14.18
2023-03-18T18:29:45.543Z,13.98
2023-03-18T18:32:12.730Z,13.90
2023-03-18T18:34:39.471Z,13.55
2023-03-18T18:37:06.576Z,11.50
2023-03-18T18:39:33.260Z,12.90
2023-03-18T18:41:59.992Z,19.08
2023-03-18T18:44:28.188Z,17.95
2023-03-18T18:46:54.935Z,13.50
2023-03-18T18:49:24.339Z,12.98
2023-03-18T18:51:55.551Z,13.77
2023-03-18T18:54:23.248Z,10.50
2023-03-18T18:56:50.699Z,11.65
2023-03-18T18:59:24.568Z,13.30
2023-03-18T19:01:51.789Z,10.90
2023-03-18T19:04:18.743Z,9.65
2023-03-18T19:06:46.222Z,10.82
2023-03-18T19:09:19.238Z,11.38
2023-03-18T19:11:47.049Z,11.90
2023-03-18T19:14:18.270Z,12.43
2023-03-18T19:16:45.375Z,12.60
2023-03-18T19:19:20.598Z,13.68
2023-03-18T19:21:47.331Z,13.02
2023-03-18T19:24:28.199Z,13.02
2023-03-18T19:26:57.534Z,11.80
2023-03-18T19:29:25.160Z,14.40
2023-03-18T19:31:52.548Z,11.82
2023-03-18T19:34:20.044Z,12.77
2023-03-18T19:36:48.945Z,12.50
2023-03-18T19:39:18.741Z,12.05
2023-03-18T19:41:47.469Z,10.73
2023-03-18T19:44:22.557Z,8.90
2023-03-18T19:46:51.699Z,7.28
2023-03-18T19:49:36.541Z,8.65
2023-03-18T19:52:21.868Z,8.65
2023-03-18T19:54:49.525Z,7.03
2023-03-18T19:57:23.254Z,7.47
2023-03-18T19:59:52.125Z,8.48
2023-03-18T20:02:25.589Z,7.63
2023-03-18T20:04:57.930Z,6.97
2023-03-18T20:07:26.880Z,7.40
2023-03-18T20:09:54.408Z,7.32
2023-03-18T20:12:26.302Z,7.25
2023-03-18T20:14:53.179Z,7.85
2023-03-18T20:17:37.044Z,8.00
2023-03-18T20:20:05.289Z,8.15
2023-03-18T20:22:37.916Z,8.55
2023-03-18T20:25:06.923Z,9.00
2023-03-18T20:27:33.850Z,8.65
2023-03-18T20:30:01.097Z,8.23
2023-03-18T20:32:27.709Z,8.95
2023-03-18T20:34:56.507Z,8.02
2023-03-18T20:37:34.430Z,8.35
2023-03-18T20:40:03.686Z,9.35
2023-03-18T20:42:30.996Z,8.02
2023-03-18T20:44:57.587Z,7.10
2023-03-18T20:47:24.223Z,7.85
2023-03-18T20:49:50.862Z,7.18
2023-03-18T20:52:27.279Z,6.63
2023-03-18T20:54:55.090Z,6.88
2023-03-18T20:57:21.699Z,6.30
2023-03-18T20:59:48.771Z,6.63
2023-03-18T21:02:33.112Z,7.90
2023-03-18T21:05:01.546Z,9.07
2023-03-18T21:07:28.961Z,7.93
2023-03-18T21:09:55.793Z,6.97
2023-03-18T21:12:22.646Z,6.38
2023-03-18T21:14:49.891Z,7.15
2023-03-18T21:17:25.190Z,6.35
2023-03-18T21:19:53.439Z,6.15
2023-03-18T21:22:22.541Z,5.40
2023-03-18T21:24:49.717Z,6.10
2023-03-18T21:27:22.201Z,5.15
2023-03-18T21:29:50.894Z,5.90
2023-03-18T21:32:27.195Z,5.57
2023-03-18T21:34:54.796Z,6.70
2023-03-18T21:37:25.391Z,7.70
2023-03-18T21:39:52.139Z,6.60
2023-03-18T21:42:22.186Z,8.15
2023-03-18T21:44:49.136Z,6.75
2023-03-18T21:47:17.887Z,6.90
2023-03-18T21:49:45.659Z,7.78
2023-03-18T21:52:31.929Z,6.78
2023-03-18T21:54:59.613Z,7.30
2023-03-18T21:57:27.202Z,5.97
2023-03-18T21:59:54.104Z,6.95
2023-03-18T22:02:35.736Z,6.88
2023-03-18T22:05:12.042Z,7.35
2023-03-18T22:07:38.649Z,7.00
2023-03-18T22:10:06.972Z,7.13
2023-03-18T22:12:33.833Z,6.03
2023-03-18T22:15:01.002Z,6.40
2023-03-18T22:17:32.615Z,6.22
2023-03-18T22:20:01.745Z,5.93
2023-03-18T22:22:34.425Z,6.63
2023-03-18T22:25:01.057Z,6.68
2023-03-18T22:27:30.208Z,6.80
2023-03-18T22:29:58.973Z,7.60
2023-03-18T22:32:41.458Z,7.07
2023-03-18T22:35:22.789Z,8.07
2023-03-18T22:37:50.208Z,7.47
2023-03-18T22:40:25.212Z,7.28
2023-03-18T22:45:28.718Z,8.90
2023-03-18T22:47:57.669Z,8.20
2023-03-18T22:50:26.583Z,8.30
2023-03-18T22:53:01.756Z,10.40
2023-03-18T22:55:34.694Z,9.77
2023-03-18T22:58:01.695Z,10.68
2023-03-18T23:00:37.908Z,9.90
2023-03-18T23:03:12.092Z,11.93
2023-03-18T23:05:38.740Z,14.98
2023-03-18T23:08:05.950Z,15.48
2023-03-18T23:10:33.002Z,19.92
2023-03-18T23:12:59.639Z,17.52
2023-03-18T23:15:26.249Z,13.43
2023-03-18T23:17:52.827Z,16.45
2023-03-18T23:20:19.561Z,13.43
2023-03-18T23:22:46.518Z,12.93
2023-03-18T23:25:16.498Z,13.93
2023-03-18T23:27:44.304Z,12.13
2023-03-18T23:30:12.873Z,12.50
2023-03-18T23:32:40.680Z,12.43
2023-03-18T23:35:08.574Z,13.73
2023-03-18T23:37:35.608Z,12.55
2023-03-18T23:40:02.976Z,11.98
2023-03-18T23:42:29.598Z,14.40
2023-03-18T23:44:56.294Z,14.63
2023-03-18T23:47:23.026Z,10.88
2023-03-18T23:49:49.651Z,11.85
2023-03-18T23:52:16.588Z,11.43
2023-03-18T23:54:43.311Z,11.90
2023-03-18T23:57:11.126Z,12.60
2023-03-18T23:59:38.368Z,13.82
